createdAt,value
2023-04-08T00:00:30.821Z,10.67
2023-04-08T00:02:57.778Z,10.75
2023-04-08T00:05:24.802Z,10.80
2023-04-08T00:07:51.705Z,10.58
2023-04-08T00:10:18.935Z,10.63
2023-04-08T00:12:47.550Z,10.66
2023-04-08T00:15:14.466Z,10.65
2023-04-08T00:17:41.738Z,10.69
2023-04-08T00:20:09.312Z,10.67
2023-04-08T00:22:36.660Z,10.60
2023-04-08T00:25:06.638Z,10.79
2023-04-08T00:27:33.845Z,10.78
2023-04-08T00:30:01.675Z,10.81
2023-04-08T00:32:29.271Z,10.82
2023-04-08T00:34:56.531Z,10.81
2023-04-08T00:37:23.426Z,10.76
2023-04-08T00:39:50.514Z,10.73
2023-04-08T00:42:17.669Z,10.72
2023-04-08T00:44:44.571Z,10.72
2023-04-08T00:47:15.606Z,10.70
2023-04-08T00:49:43.435Z,10.64
2023-04-08T00:52:11.018Z,10.62
2023-04-08T00:54:38.708Z,10.67
2023-04-08T00:57:06.824Z,10.70
2023-04-08T00:59:35.970Z,10.75
2023-04-08T01:02:27.399Z,10.75
2023-04-08T01:05:03.771Z,10.79
2023-04-08T01:07:34.754Z,10.78
2023-04-08T01:10:21.221Z,10.81
2023-04-08T01:12:59.937Z,10.78
2023-04-08T01:15:29.249Z,10.76
2023-04-08T01:17:59.065Z,10.74
2023-04-08T01:20:28.001Z,10.64
2023-04-08T01:23:00.895Z,10.67
2023-04-08T01:25:32.628Z,10.63
2023-04-08T01:28:10.640Z,10.68
2023-04-08T01:30:40.850Z,10.72
2023-04-08T01:33:10.677Z,10.72
2023-04-08T01:35:38.007Z,10.71
2023-04-08T01:38:08.300Z,10.74
2023-04-08T01:40:38.237Z,10.70
2023-04-08T01:43:09.079Z,10.70
2023-04-08T01:45:35.877Z,10.66
2023-04-08T01:48:03.770Z,10.62
2023-04-08T01:50:31.898Z,10.58
2023-04-08T01:53:00.273Z,10.54
2023-04-08T01:55:28.325Z,10.50
2023-04-08T01:58:00.422Z,10.32
2023-04-08T02:00:31.384Z,10.35
2023-04-08T02:02:59.599Z,10.37
2023-04-08T02:05:26.566Z,10.39
2023-04-08T02:07:53.402Z,10.37
2023-04-08T02:10:20.312Z,10.32
2023-04-08T02:12:47.894Z,10.36
2023-04-08T02:15:15.689Z,10.34
2023-04-08T02:18:07.948Z,10.39
2023-04-08T02:20:44.312Z,10.34
2023-04-08T02:23:16.539Z,10.30
2023-04-08T02:25:45.527Z,10.30
2023-04-08T02:28:14.190Z,10.33
2023-04-08T02:30:49.313Z,10.33
2023-04-08T02:33:20.413Z,10.33
2023-04-08T02:35:50.460Z,10.37
2023-04-08T02:38:17.827Z,10.38
2023-04-08T02:40:44.643Z,10.37
2023-04-08T02:43:11.564Z,10.34
2023-04-08T02:45:44.937Z,10.32
2023-04-08T02:48:12.016Z,10.30
2023-04-08T02:50:39.963Z,10.29
2023-04-08T02:53:08.641Z,10.29
2023-04-08T02:55:35.534Z,10.26
2023-04-08T02:58:02.336Z,10.30
2023-04-08T03:00:29.205Z,10.27
2023-04-08T03:02:56.575Z,10.23
2023-04-08T03:05:23.548Z,10.24
2023-04-08T03:07:50.431Z,10.34
2023-04-08T03:10:17.297Z,10.37
2023-04-08T03:12:44.149Z,10.38
2023-04-08T03:15:10.975Z,10.42
2023-04-08T03:17:37.887Z,10.36
2023-04-08T03:20:06.009Z,10.30
2023-04-08T03:22:34.032Z,10.35
2023-04-08T03:25:00.854Z,10.36
2023-04-08T03:27:27.713Z,10.32
2023-04-08T03:29:54.552Z,10.31
2023-04-08T03:32:21.514Z,10.33
2023-04-08T03:34:51.060Z,10.37
2023-04-08T03:37:18.580Z,10.40
2023-04-08T03:39:46.035Z,10.42
2023-04-08T03:42:12.930Z,10.38
2023-04-08T03:44:39.748Z,10.35
2023-04-08T03:47:06.604Z,10.38
2023-04-08T03:49:33.418Z,10.39
2023-04-08T03:52:00.234Z,10.42
2023-04-08T03:54:27.071Z,10.38
2023-04-08T03:56:53.930Z,10.42
2023-04-08T03:59:20.817Z,10.36
2023-04-08T04:01:47.719Z,10.42
2023-04-08T04:04:15.064Z,10.37
2023-04-08T04:06:42.100Z,10.34
2023-04-08T04:09:08.988Z,10.34
2023-04-08T04:11:35.916Z,10.29
2023-04-08T04:14:03.598Z,10.31
2023-04-08T04:16:32.834Z,10.33
2023-04-08T04:19:00.116Z,10.32
2023-04-08T04:21:27.248Z,10.28
2023-04-08T04:23:54.170Z,10.24
2023-04-08T04:26:21.230Z,10.16
2023-04-08T04:28:48.357Z,10.15
2023-04-08T04:31:21.415Z,10.14
2023-04-08T04:33:49.153Z,10.12
2023-04-08T04:36:16.227Z,10.18
2023-04-08T04:38:43.548Z,10.22
2023-04-08T04:41:11.055Z,10.25
2023-04-08T04:43:38.361Z,10.25
2023-04-08T04:46:08.802Z,10.28
2023-04-08T04:48:36.341Z,10.32
2023-04-08T04:51:03.449Z,10.34
2023-04-08T04:53:31.596Z,10.34
2023-04-08T04:55:58.580Z,10.36
2023-04-08T04:58:25.468Z,10.28
2023-04-08T05:00:52.380Z,10.33
2023-04-08T05:03:19.327Z,10.31
2023-04-08T05:05:51.124Z,10.31
2023-04-08T05:08:17.917Z,10.28
2023-04-08T05:10:44.734Z,10.30
2023-04-08T05:13:11.704Z,10.23
2023-04-08T05:15:39.570Z,10.24
2023-04-08T05:18:06.462Z,10.23
2023-04-08T05:20:33.428Z,10.18
2023-04-08T05:23:00.254Z,10.09
2023-04-08T05:25:27.062Z,10.05
2023-04-08T05:27:54.053Z,9.99
2023-04-08T05:30:21.099Z,10.04
2023-04-08T05:32:47.959Z,10.09
2023-04-08T05:35:14.866Z,10.05
2023-04-08T05:37:41.730Z,10.15
2023-04-08T05:40:09.241Z,10.12
2023-04-08T05:42:36.341Z,10.09
2023-04-08T05:45:03.498Z,10.18
2023-04-08T05:47:30.426Z,10.19
2023-04-08T05:49:57.255Z,10.11
2023-04-08T05:52:24.105Z,10.06
2023-04-08T05:54:51.052Z,10.09
2023-04-08T05:57:17.898Z,10.07
2023-04-08T05:59:44.690Z,10.02
2023-04-08T06:02:11.604Z,9.97
2023-04-08T06:04:38.709Z,9.93
2023-04-08T06:07:06.552Z,9.97
2023-04-08T06:09:37.100Z,10.02
2023-04-08T06:12:04.350Z,9.98
2023-04-08T06:14:31.272Z,9.92
2023-04-08T06:16:58.241Z,9.91
2023-04-08T06:19:25.245Z,9.95
2023-04-08T06:21:52.146Z,9.97
2023-04-08T06:24:19.083Z,10.02
2023-04-08T06:26:45.887Z,9.98
2023-04-08T06:29:12.705Z,9.92
2023-04-08T06:31:39.731Z,9.96
2023-04-08T06:34:06.574Z,9.95
2023-04-08T06:36:33.381Z,9.93
2023-04-08T06:39:00.236Z,9.88
2023-04-08T06:41:27.063Z,9.88
2023-04-08T06:43:53.878Z,9.85
2023-04-08T06:46:20.905Z,9.81
2023-04-08T06:48:47.955Z,9.90
2023-04-08T06:51:14.880Z,9.97
2023-04-08T06:53:41.718Z,9.94
2023-04-08T06:56:08.599Z,9.96
2023-04-08T06:58:35.637Z,9.98
2023-04-08T07:01:03.271Z,9.91
2023-04-08T07:03:30.282Z,9.87
2023-04-08T07:05:57.155Z,9.90
2023-04-08T07:08:23.964Z,9.91
2023-04-08T07:10:52.814Z,9.81
2023-04-08T07:13:19.660Z,9.84
2023-04-08T07:15:46.456Z,9.92
2023-04-08T07:18:13.575Z,9.91
2023-04-08T07:20:40.556Z,9.99
2023-04-08T07:23:07.448Z,9.91
2023-04-08T07:25:35.539Z,9.97
2023-04-08T07:28:02.383Z,9.95
2023-04-08T07:30:29.278Z,9.92
2023-04-08T07:32:59.335Z,9.87
2023-04-08T07:35:27.868Z,9.85
2023-04-08T07:37:55.056Z,9.82
2023-04-08T07:40:22.250Z,9.91
2023-04-08T07:42:49.307Z,9.86
2023-04-08T07:45:16.302Z,9.92
2023-04-08T07:47:44.135Z,9.94
2023-04-08T07:50:11.888Z,9.98
2023-04-08T07:52:38.742Z,9.96
2023-04-08T07:55:06.435Z,10.05
2023-04-08T07:57:33.253Z,10.06
2023-04-08T08:00:00.373Z,10.11
2023-04-08T08:02:27.384Z,10.14
2023-04-08T08:04:54.396Z,10.13
2023-04-08T08:07:21.267Z,10.07
2023-04-08T08:09:48.085Z,10.05
2023-04-08T08:12:14.947Z,10.13
2023-04-08T08:14:41.763Z,10.18
2023-04-08T08:17:08.598Z,10.17
2023-04-08T08:19:35.409Z,10.18
2023-04-08T08:22:03.244Z,10.14
2023-04-08T08:24:30.113Z,10.06
2023-04-08T08:26:57.023Z,10.13
2023-04-08T08:29:23.835Z,10.15
2023-04-08T08:31:50.672Z,10.25
2023-04-08T08:34:17.591Z,10.19
2023-04-08T08:36:44.428Z,10.16
2023-04-08T08:39:11.242Z,10.24
2023-04-08T08:41:38.129Z,10.28
2023-04-08T08:44:08.749Z,10.29
2023-04-08T08:46:35.896Z,10.34
2023-04-08T08:49:03.045Z,10.32
2023-04-08T08:51:32.701Z,10.35
2023-04-08T08:54:03.841Z,10.41
2023-04-08T08:56:31.015Z,10.41
2023-04-08T08:58:57.840Z,10.41
2023-04-08T09:01:40.681Z,10.37
2023-04-08T09:04:20.354Z,10.48
2023-04-08T09:06:50.147Z,10.26
2023-04-08T09:09:17.997Z,10.47
2023-04-08T09:11:47.151Z,10.53
2023-04-08T09:14:26.212Z,10.53
2023-04-08T09:16:53.407Z,10.58
2023-04-08T09:19:20.675Z,10.58
2023-04-08T09:22:09.483Z,10.60
2023-04-08T09:24:37.422Z,10.62
2023-04-08T09:27:05.663Z,10.68
2023-04-08T09:29:35.732Z,10.68
2023-04-08T09:32:04.405Z,10.58
2023-04-08T09:34:34.091Z,10.60
2023-04-08T09:37:01.445Z,10.56
2023-04-08T09:39:28.355Z,10.64
2023-04-08T09:41:58.909Z,10.72
2023-04-08T09:44:29.025Z,10.70
2023-04-08T09:47:14.358Z,10.72
2023-04-08T09:49:46.951Z,10.73
2023-04-08T09:52:46.533Z,10.80
2023-04-08T09:55:14.674Z,10.85
2023-04-08T09:57:46.994Z,10.75
2023-04-08T10:00:17.001Z,10.86
2023-04-08T10:03:09.502Z,11.01
2023-04-08T10:05:39.664Z,11.16
2023-04-08T10:08:07.779Z,11.11
2023-04-08T10:10:39.312Z,11.11
2023-04-08T10:13:07.771Z,11.21
2023-04-08T10:15:40.865Z,11.24
2023-04-08T10:18:10.734Z,11.24
2023-04-08T10:20:37.536Z,11.27
2023-04-08T10:23:18.383Z,11.40
2023-04-08T10:25:49.342Z,11.36
2023-04-08T10:28:19.034Z,11.30
2023-04-08T10:31:01.428Z,11.30
2023-04-08T10:33:34.528Z,11.33
2023-04-08T10:36:12.304Z,11.39
2023-04-08T10:38:40.083Z,11.31
2023-04-08T10:41:06.945Z,11.34
2023-04-08T10:43:37.560Z,11.21
2023-04-08T10:46:05.126Z,11.38
2023-04-08T10:48:32.348Z,11.32
2023-04-08T10:51:04.148Z,11.29
2023-04-08T10:53:40.335Z,11.23
2023-04-08T10:56:19.091Z,11.22
2023-04-08T10:58:59.189Z,11.24
2023-04-08T11:01:27.171Z,11.30
2023-04-08T11:03:54.282Z,11.33
2023-04-08T11:06:21.308Z,11.37
2023-04-08T11:08:48.150Z,11.18
2023-04-08T11:11:15.359Z,11.34
2023-04-08T11:13:52.928Z,11.36
2023-04-08T11:16:22.370Z,11.26
2023-04-08T11:18:51.311Z,11.29
2023-04-08T11:21:18.445Z,11.28
2023-04-08T11:23:45.429Z,11.24
2023-04-08T11:26:13.674Z,11.42
2023-04-08T11:28:40.598Z,11.41
2023-04-08T11:31:09.031Z,11.43
2023-04-08T11:33:36.332Z,11.31
2023-04-08T11:36:08.388Z,11.36
2023-04-08T11:38:41.303Z,11.39
2023-04-08T11:41:08.410Z,11.26
2023-04-08T11:43:40.986Z,11.30
2023-04-08T11:46:11.533Z,11.29
2023-04-08T11:48:39.511Z,11.45
2023-04-08T11:51:12.451Z,11.56
2023-04-08T11:53:39.517Z,11.50
2023-04-08T11:56:21.371Z,11.31
2023-04-08T11:58:48.302Z,11.31
2023-04-08T12:01:15.633Z,11.41
2023-04-08T12:04:00.392Z,11.40
2023-04-08T12:06:29.281Z,11.51
2023-04-08T12:08:56.789Z,11.51
2023-04-08T12:11:24.281Z,11.39
2023-04-08T12:13:51.473Z,11.37
2023-04-08T12:16:20.033Z,11.49
2023-04-08T12:18:47.085Z,11.45
2023-04-08T12:21:14.096Z,11.43
2023-04-08T12:23:40.976Z,11.38
2023-04-08T12:26:08.073Z,11.53
2023-04-08T12:28:35.843Z,11.59
2023-04-08T12:31:03.488Z,11.57
2023-04-08T12:33:30.682Z,11.53
2023-04-08T12:36:00.652Z,11.56
2023-04-08T12:38:27.619Z,11.34
2023-04-08T12:40:55.528Z,11.32
2023-04-08T12:43:23.654Z,11.42
2023-04-08T12:45:50.883Z,11.49
2023-04-08T12:48:17.967Z,11.48
2023-04-08T12:50:44.905Z,11.60
2023-04-08T12:53:11.723Z,11.59
2023-04-08T12:55:38.522Z,11.57
2023-04-08T12:58:06.083Z,11.59
2023-04-08T13:00:33.024Z,11.49
2023-04-08T13:02:59.979Z,11.40
2023-04-08T13:05:42.119Z,11.56
2023-04-08T13:08:10.089Z,11.47
2023-04-08T13:10:36.967Z,11.59
2023-04-08T13:13:04.200Z,11.50
2023-04-08T13:15:31.173Z,11.44
2023-04-08T13:17:58.038Z,11.53
2023-04-08T13:20:26.056Z,11.64
2023-04-08T13:22:53.745Z,11.69
2023-04-08T13:25:20.912Z,11.49
2023-04-08T13:27:47.747Z,11.48
2023-04-08T13:30:14.601Z,11.44
2023-04-08T13:32:41.646Z,11.47
2023-04-08T13:35:09.253Z,11.45
2023-04-08T13:37:36.785Z,11.50
2023-04-08T13:40:04.683Z,11.52
2023-04-08T13:42:31.671Z,11.58
2023-04-08T13:44:58.724Z,11.59
2023-04-08T13:47:25.622Z,11.55
2023-04-08T13:49:53.503Z,11.49
2023-04-08T13:52:20.522Z,11.52
2023-04-08T13:54:47.362Z,11.58
2023-04-08T13:57:14.179Z,11.57
2023-04-08T13:59:42.105Z,11.54
2023-04-08T14:02:11.240Z,11.51
2023-04-08T14:04:38.103Z,11.57
2023-04-08T14:07:05.003Z,11.64
2023-04-08T14:09:32.032Z,11.61
2023-04-08T14:11:58.966Z,11.57
2023-04-08T14:14:25.928Z,11.52
2023-04-08T14:16:52.903Z,11.54
2023-04-08T14:19:19.791Z,11.11
2023-04-08T14:21:46.636Z,11.48
2023-04-08T14:24:13.519Z,11.58
2023-04-08T14:26:40.871Z,11.57
2023-04-08T14:29:08.401Z,11.54
2023-04-08T14:31:36.485Z,11.59
2023-04-08T14:34:03.909Z,11.57
2023-04-08T14:36:31.676Z,11.49
2023-04-08T14:38:58.812Z,11.52
2023-04-08T14:41:27.192Z,11.62
2023-04-08T14:43:54.217Z,11.50
2023-04-08T14:46:21.686Z,11.58
2023-04-08T14:48:48.828Z,11.53
2023-04-08T14:51:15.804Z,11.54
2023-04-08T14:53:42.649Z,11.56
2023-04-08T14:56:09.702Z,11.52
2023-04-08T14:58:36.775Z,11.56
2023-04-08T15:01:03.820Z,11.62
2023-04-08T15:03:30.847Z,11.58
2023-04-08T15:05:58.644Z,11.70
2023-04-08T15:08:25.633Z,11.63
2023-04-08T15:10:52.476Z,11.70
2023-04-08T15:13:19.328Z,11.71
2023-04-08T15:15:46.232Z,11.63
2023-04-08T15:18:13.086Z,11.64
2023-04-08T15:20:39.881Z,11.59
2023-04-08T15:23:06.785Z,11.51
2023-04-08T15:25:33.698Z,11.52
2023-04-08T15:28:02.554Z,11.45
2023-04-08T15:30:35.001Z,11.41
2023-04-08T15:33:05.237Z,11.36
2023-04-08T15:35:32.854Z,11.38
2023-04-08T15:38:00.615Z,11.53
2023-04-08T15:40:27.546Z,11.57
2023-04-08T15:42:54.409Z,11.54
2023-04-08T15:45:22.052Z,11.55
2023-04-08T15:47:48.959Z,11.44
2023-04-08T15:50:17.118Z,11.51
2023-04-08T15:52:44.526Z,11.53
2023-04-08T15:55:11.840Z,11.53
2023-04-08T15:57:38.758Z,11.58
2023-04-08T16:00:13.867Z,11.52
2023-04-08T16:02:42.297Z,11.45
2023-04-08T16:05:09.649Z,11.49
2023-04-08T16:07:37.375Z,11.44
2023-04-08T16:10:04.719Z,11.49
2023-04-08T16:12:32.364Z,11.59
2023-04-08T16:14:59.212Z,11.63
2023-04-08T16:17:27.423Z,11.54
2023-04-08T16:19:54.233Z,11.54
2023-04-08T16:22:21.035Z,11.50
2023-04-08T16:24:47.821Z,11.51
2023-04-08T16:27:14.667Z,11.46
2023-04-08T16:29:42.125Z,11.53
2023-04-08T16:32:09.048Z,11.53
2023-04-08T16:34:36.169Z,11.57
2023-04-08T16:37:03.042Z,11.47
2023-04-08T16:39:29.857Z,11.44
2023-04-08T16:41:56.644Z,11.43
2023-04-08T16:44:23.871Z,11.54
2023-04-08T16:46:50.761Z,11.57
2023-04-08T16:49:18.397Z,11.61
2023-04-08T16:51:45.363Z,11.62
2023-04-08T16:54:12.223Z,11.53
2023-04-08T16:56:44.236Z,11.65
2023-04-08T16:59:14.679Z,11.54
2023-04-08T17:01:41.502Z,11.67
2023-04-08T17:04:08.449Z,11.64
2023-04-08T17:06:36.188Z,11.62
2023-04-08T17:09:03.955Z,11.66
2023-04-08T17:11:31.210Z,11.66
2023-04-08T17:13:58.079Z,11.67
2023-04-08T17:16:25.384Z,11.65
2023-04-08T17:18:52.441Z,11.67
2023-04-08T17:21:19.989Z,11.66
2023-04-08T17:23:46.817Z,11.69
2023-04-08T17:26:13.644Z,11.65
2023-04-08T17:28:40.497Z,11.69
2023-04-08T17:31:07.297Z,11.72
2023-04-08T17:33:34.178Z,11.70
2023-04-08T17:36:01.538Z,11.74
2023-04-08T17:38:28.536Z,11.74
2023-04-08T17:40:55.320Z,11.74
2023-04-08T17:43:22.143Z,11.61
2023-04-08T17:45:50.416Z,11.62
2023-04-08T17:48:17.874Z,11.67
2023-04-08T17:50:44.775Z,11.68
2023-04-08T17:53:11.606Z,11.67
2023-04-08T17:55:38.422Z,11.68
2023-04-08T17:58:05.227Z,11.68
2023-04-08T18:00:32.037Z,11.68
2023-04-08T18:02:58.959Z,11.70
2023-04-08T18:05:27.188Z,11.69
2023-04-08T18:07:54.093Z,11.65
2023-04-08T18:10:22.949Z,11.63
2023-04-08T18:12:52.507Z,11.63
2023-04-08T18:15:21.914Z,11.65
2023-04-08T18:17:48.782Z,11.64
2023-04-08T18:20:15.797Z,11.64
2023-04-08T18:22:42.855Z,11.62
2023-04-08T18:25:10.046Z,11.59
2023-04-08T18:27:37.016Z,11.60
2023-04-08T18:30:04.093Z,11.61
2023-04-08T18:32:30.937Z,11.61
2023-04-08T18:34:57.761Z,11.55
2023-04-08T18:37:24.597Z,11.57
2023-04-08T18:39:51.524Z,11.54
2023-04-08T18:42:18.348Z,11.56
2023-04-08T18:44:45.188Z,11.55
2023-04-08T18:47:12.074Z,11.56
2023-04-08T18:49:38.925Z,11.55
2023-04-08T18:52:06.791Z,11.54
2023-04-08T18:54:33.718Z,11.54
2023-04-08T18:57:00.763Z,11.56
2023-04-08T18:59:28.530Z,11.56
2023-04-08T19:01:55.950Z,11.50
2023-04-08T19:04:23.159Z,11.56
2023-04-08T19:06:50.116Z,11.54
2023-04-08T19:09:17.005Z,11.53
2023-04-08T19:11:43.825Z,11.52
2023-04-08T19:14:10.820Z,11.52
2023-04-08T19:16:40.045Z,11.51
2023-04-08T19:19:08.130Z,11.47
2023-04-08T19:21:37.605Z,11.50
2023-04-08T19:24:06.415Z,11.46
2023-04-08T19:26:33.826Z,11.49
2023-04-08T19:29:01.210Z,11.48
2023-04-08T19:31:28.546Z,11.44
2023-04-08T19:33:55.799Z,11.45
2023-04-08T19:36:22.708Z,11.44
2023-04-08T19:38:49.541Z,11.41
2023-04-08T19:41:16.580Z,11.33
2023-04-08T19:43:43.415Z,11.37
2023-04-08T19:46:10.280Z,11.39
2023-04-08T19:48:37.144Z,11.36
2023-04-08T19:51:04.099Z,11.39
2023-04-08T19:53:31.058Z,11.31
2023-04-08T19:56:04.094Z,11.34
2023-04-08T19:58:31.210Z,11.32
2023-04-08T20:00:58.089Z,11.29
2023-04-08T20:03:25.145Z,11.31
2023-04-08T20:05:52.470Z,11.34
2023-04-08T20:08:19.281Z,11.32
2023-04-08T20:10:46.571Z,11.34
2023-04-08T20:13:14.576Z,11.33
2023-04-08T20:15:41.799Z,11.33
2023-04-08T20:18:08.600Z,11.30
2023-04-08T20:20:35.398Z,11.28
2023-04-08T20:23:02.272Z,11.28
2023-04-08T20:25:29.116Z,11.24
2023-04-08T20:27:57.384Z,11.25
2023-04-08T20:30:24.238Z,11.24
2023-04-08T20:32:51.096Z,11.26
2023-04-08T20:35:18.234Z,11.24
2023-04-08T20:37:46.134Z,11.17
2023-04-08T20:40:13.230Z,11.24
2023-04-08T20:42:40.100Z,11.20
2023-04-08T20:45:08.086Z,11.24
2023-04-08T20:47:34.987Z,11.24
2023-04-08T20:50:01.795Z,11.21
2023-04-08T20:52:28.618Z,11.16
2023-04-08T20:54:55.452Z,11.19
2023-04-08T20:57:22.262Z,11.16
2023-04-08T20:59:49.099Z,11.19
2023-04-08T21:02:17.532Z,11.18
2023-04-08T21:04:44.476Z,11.11
2023-04-08T21:07:11.357Z,11.17
2023-04-08T21:09:38.200Z,11.15
2023-04-08T21:12:05.083Z,11.17
2023-04-08T21:14:32.010Z,11.07
2023-04-08T21:16:59.065Z,11.12
2023-04-08T21:19:25.944Z,11.09
2023-04-08T21:21:52.804Z,11.09
2023-04-08T21:24:19.658Z,11.09
2023-04-08T21:26:46.656Z,11.08
2023-04-08T21:29:13.563Z,11.09
2023-04-08T21:31:41.206Z,11.07
2023-04-08T21:34:08.144Z,11.07
2023-04-08T21:36:35.042Z,11.06
2023-04-08T21:39:02.356Z,11.04
2023-04-08T21:41:30.597Z,10.97
2023-04-08T21:43:57.748Z,11.01
2023-04-08T21:46:24.709Z,11.00
2023-04-08T21:48:51.735Z,11.00
2023-04-08T21:51:19.282Z,10.67
2023-04-08T21:53:46.310Z,10.93
2023-04-08T21:56:14.013Z,10.99
2023-04-08T21:58:41.106Z,10.94
2023-04-08T22:01:08.080Z,10.96
2023-04-08T22:03:35.149Z,10.90
2023-04-08T22:06:02.083Z,10.90
2023-04-08T22:08:28.934Z,10.89
2023-04-08T22:10:55.891Z,10.89
2023-04-08T22:13:22.724Z,10.87
2023-04-08T22:15:49.545Z,10.86
2023-04-08T22:18:16.362Z,10.82
2023-04-08T22:20:43.186Z,10.86
2023-04-08T22:23:10.062Z,10.82
2023-04-08T22:25:36.874Z,10.84
2023-04-08T22:28:03.696Z,10.82
2023-04-08T22:30:31.003Z,10.81
2023-04-08T22:32:58.008Z,10.78
2023-04-08T22:35:24.860Z,10.78
2023-04-08T22:37:51.683Z,10.78
2023-04-08T22:40:18.599Z,10.80
2023-04-08T22:42:45.414Z,10.76
2023-04-08T22:45:12.313Z,10.77
2023-04-08T22:47:39.184Z,10.75
2023-04-08T22:50:06.970Z,10.73
2023-04-08T22:52:33.793Z,10.71
2023-04-08T22:55:00.788Z,10.68
2023-04-08T22:57:27.614Z,10.69
2023-04-08T22:59:54.434Z,10.69
2023-04-08T23:02:21.508Z,10.64
2023-04-08T23:04:48.513Z,10.65
2023-04-08T23:07:15.351Z,10.65
2023-04-08T23:09:42.175Z,10.60
2023-04-08T23:12:09.042Z,10.58
2023-04-08T23:14:35.937Z,10.58
2023-04-08T23:17:04.979Z,10.57
2023-04-08T23:19:32.291Z,10.59
2023-04-08T23:21:59.144Z,10.57
2023-04-08T23:24:26.037Z,10.59
2023-04-08T23:26:52.849Z,10.60
2023-04-08T23:29:19.666Z,10.58
2023-04-08T23:31:46.534Z,10.54
2023-04-08T23:34:13.357Z,10.56
2023-04-08T23:36:40.293Z,10.59
2023-04-08T23:39:07.144Z,10.57
2023-04-08T23:41:34.123Z,10.58
2023-04-08T23:44:01.047Z,10.53
2023-04-08T23:46:27.897Z,10.50
2023-04-08T23:48:54.814Z,10.52
2023-04-08T23:51:21.715Z,10.51
2023-04-08T23:53:48.625Z,10.52
2023-04-08T23:56:15.657Z,10.53
2023-04-08T23:58:42.452Z,10.50
